createdAt,value
2018-04-19T00:00:05.419Z,79.00
2018-04-19T00:02:39.309Z,79.10
2018-04-19T00:05:13.234Z,79.28
2018-04-19T00:07:47.018Z,79.41
2018-04-19T00:10:20.696Z,79.42
2018-04-19T00:12:54.448Z,79.39
2018-04-19T00:15:28.342Z,79.20
2018-04-19T00:18:01.792Z,79.21
2018-04-19T00:20:35.332Z,79.45
2018-04-19T00:23:09.302Z,79.69
2018-04-19T00:25:43.261Z,79.76
2018-04-19T00:28:16.799Z,79.88
2018-04-19T00:30:50.536Z,80.09
2018-04-19T00:33:24.274Z,80.13
2018-04-19T00:35:57.711Z,80.06
2018-04-19T00:38:32.468Z,79.74
2018-04-19T00:41:07.556Z,79.93
2018-04-19T00:43:42.011Z,80.10
2018-04-19T00:46:15.899Z,80.01
2018-04-19T00:48:49.508Z,80.13
2018-04-19T00:51:22.919Z,80.05
2018-04-19T00:53:56.771Z,80.09
2018-04-19T00:56:30.449Z,80.37
2018-04-19T00:59:05.163Z,80.30
2018-04-19T01:01:38.787Z,80.07
2018-04-19T01:04:12.523Z,80.36
2018-04-19T01:06:46.523Z,80.33
2018-04-19T01:09:20.055Z,80.58
2018-04-19T01:11:54.421Z,80.68
2018-04-19T01:14:28.615Z,80.54
2018-04-19T01:17:02.185Z,80.42
2018-04-19T01:19:35.968Z,80.79
2018-04-19T01:22:10.191Z,80.88
2018-04-19T01:24:45.685Z,80.90
2018-04-19T01:27:19.337Z,80.79
2018-04-19T01:29:53.148Z,80.77
2018-04-19T01:32:27.656Z,80.95
2018-04-19T01:35:01.429Z,80.78
2018-04-19T01:37:35.367Z,80.67
2018-04-19T01:40:10.335Z,80.61
2018-04-19T01:42:44.337Z,80.88
2018-04-19T01:45:18.632Z,81.00
2018-04-19T01:47:52.184Z,81.37
2018-04-19T01:50:25.940Z,80.95
2018-04-19T01:53:00.029Z,80.78
2018-04-19T01:55:33.549Z,80.97
2018-04-19T01:58:08.338Z,80.65
2018-04-19T02:00:42.588Z,80.70
2018-04-19T02:03:16.960Z,81.14
2018-04-19T02:05:50.607Z,81.18
2018-04-19T02:08:24.784Z,81.42
2018-04-19T02:10:58.400Z,81.33
2018-04-19T02:13:32.490Z,81.26
2018-04-19T02:16:06.463Z,81.39
2018-04-19T02:18:40.309Z,81.28
2018-04-19T02:21:13.976Z,81.26
2018-04-19T02:23:48.969Z,81.27
2018-04-19T02:26:22.909Z,81.57
2018-04-19T02:28:56.393Z,81.38
2018-04-19T02:31:31.007Z,81.21
2018-04-19T02:34:06.521Z,81.07
2018-04-19T02:36:40.061Z,81.24
2018-04-19T02:39:14.290Z,81.27
2018-04-19T02:41:48.105Z,81.45
2018-04-19T02:44:21.648Z,81.44
2018-04-19T02:46:55.410Z,81.34
2018-04-19T02:49:29.510Z,81.22
2018-04-19T02:52:03.400Z,81.10
2018-04-19T02:54:37.478Z,81.04
2018-04-19T02:57:11.441Z,81.19
2018-04-19T02:59:45.433Z,81.24
2018-04-19T03:02:19.475Z,81.53
2018-04-19T03:04:53.805Z,81.50
2018-04-19T03:07:28.504Z,81.54
2018-04-19T03:10:03.003Z,81.80
2018-04-19T03:12:36.580Z,81.83
2018-04-19T03:15:10.596Z,81.82
2018-04-19T03:17:44.052Z,81.65
2018-04-19T03:20:17.608Z,81.60
2018-04-19T03:22:51.324Z,81.65
2018-04-19T03:25:25.205Z,81.77
2018-04-19T03:27:58.834Z,81.76
2018-04-19T03:30:32.815Z,81.69
2018-04-19T03:33:06.837Z,81.53
2018-04-19T03:35:40.863Z,81.73
2018-04-19T03:38:14.592Z,81.80
2018-04-19T03:40:49.251Z,81.87
2018-04-19T03:43:23.685Z,82.00
2018-04-19T03:45:57.513Z,82.02
2018-04-19T03:48:36.626Z,82.00
2018-04-19T03:51:18.628Z,81.94
2018-04-19T03:53:52.467Z,82.13
2018-04-19T03:56:26.758Z,82.31
2018-04-19T03:59:02.927Z,82.19
2018-04-19T04:01:37.052Z,81.98
2018-04-19T04:04:11.016Z,82.10
2018-04-19T04:06:44.836Z,82.11
2018-04-19T04:09:18.813Z,81.93
2018-04-19T04:11:52.817Z,81.98
2018-04-19T04:14:27.332Z,81.72
2018-04-19T04:17:20.533Z,81.52
2018-04-19T04:22:07.288Z,81.46
2018-04-19T04:24:41.429Z,81.33
2018-04-19T04:27:15.359Z,81.23
2018-04-19T04:29:49.406Z,81.00
2018-04-19T04:32:23.061Z,80.64
2018-04-19T04:34:57.217Z,80.17
2018-04-19T04:37:31.381Z,79.43
2018-04-19T04:40:06.057Z,78.58
2018-04-19T04:42:39.938Z,77.47
2018-04-19T04:45:14.562Z,76.90
2018-04-19T04:47:48.470Z,76.74
2018-04-19T04:50:23.767Z,76.60
2018-04-19T04:52:57.357Z,76.57
2018-04-19T04:55:32.801Z,75.89
2018-04-19T04:58:08.061Z,75.84
2018-04-19T05:00:42.520Z,75.82
2018-04-19T05:03:16.260Z,75.40
2018-04-19T05:05:49.864Z,75.19
2018-04-19T05:08:30.375Z,75.37
2018-04-19T05:11:13.383Z,75.27
2018-04-19T05:13:49.071Z,74.97
2018-04-19T05:16:24.016Z,74.86
2018-04-19T05:18:58.792Z,74.74
2018-04-19T05:21:32.500Z,74.74
2018-04-19T05:24:07.627Z,74.74
2018-04-19T05:26:41.497Z,74.60
2018-04-19T05:29:15.339Z,74.65
2018-04-19T05:31:49.745Z,74.44
2018-04-19T05:34:24.117Z,74.19
2018-04-19T05:36:58.033Z,73.97
2018-04-19T05:39:32.985Z,73.67
2018-04-19T05:42:08.592Z,73.29
2018-04-19T05:44:42.194Z,72.86
2018-04-19T05:47:16.860Z,72.60
2018-04-19T05:49:52.374Z,72.58
2018-04-19T05:52:26.484Z,72.50
2018-04-19T05:55:02.932Z,72.41
2018-04-19T05:57:36.907Z,72.13
2018-04-19T06:00:12.798Z,72.12
2018-04-19T06:02:46.565Z,71.49
2018-04-19T06:05:20.514Z,71.24
2018-04-19T06:07:56.288Z,70.93
2018-04-19T06:10:30.781Z,70.75
2018-04-19T06:13:04.197Z,70.47
2018-04-19T06:15:38.708Z,70.24
2018-04-19T06:18:14.082Z,70.55
2018-04-19T06:20:48.686Z,69.75
2018-04-19T06:23:23.954Z,69.43
2018-04-19T06:25:58.271Z,69.62
2018-04-19T06:28:33.079Z,69.23
2018-04-19T06:31:07.305Z,69.21
2018-04-19T06:33:41.104Z,69.05
2018-04-19T06:36:22.302Z,68.47
2018-04-19T06:39:01.261Z,68.32
2018-04-19T06:41:36.129Z,67.51
2018-04-19T06:44:10.567Z,67.42
2018-04-19T06:46:44.470Z,67.20
2018-04-19T06:49:21.713Z,66.58
2018-04-19T06:52:18.938Z,66.60
2018-04-19T06:54:58.882Z,66.32
2018-04-19T06:57:32.690Z,65.49
2018-04-19T07:00:06.679Z,65.05
2018-04-19T07:02:46.122Z,64.75
2018-04-19T07:05:33.644Z,64.31
2018-04-19T07:08:12.188Z,64.52
2018-04-19T07:10:46.069Z,63.89
2018-04-19T07:13:19.992Z,63.29
2018-04-19T07:15:56.115Z,62.75
2018-04-19T07:18:34.765Z,62.43
2018-04-19T07:21:11.585Z,61.96
2018-04-19T07:23:49.612Z,61.76
2018-04-19T07:26:24.752Z,61.08
2018-04-19T07:29:03.819Z,60.59
2018-04-19T07:31:39.545Z,60.44
2018-04-19T07:34:16.166Z,59.35
2018-04-19T07:36:50.171Z,59.67
2018-04-19T07:39:24.176Z,58.04
2018-04-19T07:41:57.890Z,56.78
2018-04-19T07:44:31.793Z,55.46
2018-04-19T07:47:05.546Z,55.07
2018-04-19T07:49:38.753Z,55.37
2018-04-19T07:52:12.371Z,56.15
2018-04-19T07:54:46.287Z,55.92
2018-04-19T07:58:22.945Z,55.73
2018-04-19T08:00:56.515Z,55.82
2018-04-19T08:03:30.373Z,53.18
2018-04-19T08:06:04.591Z,53.09
2018-04-19T08:08:38.037Z,53.39
2018-04-19T08:11:11.799Z,53.73
2018-04-19T08:13:45.904Z,52.93
2018-04-19T08:16:19.439Z,52.50
2018-04-19T08:18:53.325Z,51.94
2018-04-19T08:21:29.793Z,51.27
2018-04-19T08:24:03.512Z,49.51
2018-04-19T08:26:37.493Z,49.53
2018-04-19T08:29:11.474Z,49.20
2018-04-19T08:31:46.033Z,49.85
2018-04-19T08:34:19.827Z,46.08
2018-04-19T08:36:53.363Z,46.40
2018-04-19T08:39:28.358Z,47.00
2018-04-19T08:42:02.122Z,48.14
2018-04-19T08:44:35.402Z,48.29
2018-04-19T08:47:10.358Z,47.98
2018-04-19T08:49:43.672Z,48.07
2018-04-19T08:52:17.482Z,48.21
2018-04-19T08:54:51.977Z,47.37
2018-04-19T08:57:25.423Z,47.68
2018-04-19T08:59:59.097Z,46.42
2018-04-19T09:02:35.784Z,45.44
2018-04-19T09:05:09.908Z,45.34
2018-04-19T09:07:43.398Z,45.58
2018-04-19T09:10:18.104Z,45.57
2018-04-19T09:12:54.144Z,45.73
2018-04-19T09:15:27.567Z,45.87
2018-04-19T09:18:04.101Z,44.98
2018-04-19T09:20:38.986Z,44.75
2018-04-19T09:23:14.658Z,44.80
2018-04-19T09:25:48.222Z,43.78
2018-04-19T09:28:22.658Z,45.41
2018-04-19T09:30:57.909Z,43.29
2018-04-19T09:33:38.491Z,42.82
2018-04-19T09:36:13.100Z,42.81
2018-04-19T09:38:49.602Z,43.84
2018-04-19T09:41:25.684Z,44.37
2018-04-19T09:44:00.184Z,44.68
2018-04-19T09:46:35.076Z,44.67
2018-04-19T09:49:09.316Z,41.72
2018-04-19T09:51:43.971Z,44.25
2018-04-19T09:54:18.129Z,43.26
2018-04-19T09:56:52.103Z,42.89
2018-04-19T09:59:26.835Z,41.98
2018-04-19T10:02:04.438Z,41.01
2018-04-19T10:04:38.671Z,42.20
2018-04-19T10:07:12.112Z,40.36
2018-04-19T10:09:45.901Z,40.84
2018-04-19T10:12:20.755Z,38.36
2018-04-19T10:14:55.030Z,38.31
2018-04-19T10:17:29.710Z,39.08
2018-04-19T10:20:04.400Z,41.67
2018-04-19T10:22:38.171Z,43.57
2018-04-19T10:25:11.902Z,43.58
2018-04-19T10:27:46.356Z,42.99
2018-04-19T10:30:20.413Z,41.96
2018-04-19T10:32:54.160Z,42.05
2018-04-19T10:35:27.706Z,43.47
2018-04-19T10:38:01.943Z,44.40
2018-04-19T10:40:35.691Z,42.90
2018-04-19T10:43:10.242Z,43.31
2018-04-19T10:45:44.708Z,44.34
2018-04-19T10:48:18.076Z,43.51
2018-04-19T10:50:51.557Z,42.06
2018-04-19T10:53:25.598Z,41.63
2018-04-19T10:55:58.993Z,40.12
2018-04-19T10:58:32.505Z,40.28
2018-04-19T11:01:07.605Z,41.41
2018-04-19T11:03:41.179Z,42.00
2018-04-19T11:06:15.114Z,40.99
2018-04-19T11:08:49.184Z,41.51
2018-04-19T11:11:22.686Z,41.16
2018-04-19T11:13:56.162Z,40.24
2018-04-19T11:16:30.196Z,39.18
2018-04-19T11:19:03.858Z,38.05
2018-04-19T11:21:38.335Z,38.60
2018-04-19T11:24:12.934Z,41.62
2018-04-19T11:26:47.316Z,42.58
2018-04-19T11:29:21.140Z,40.47
2018-04-19T11:31:54.623Z,39.09
2018-04-19T11:34:28.651Z,37.57
2018-04-19T11:37:02.570Z,37.27
2018-04-19T11:39:36.704Z,38.53
2018-04-19T11:42:10.976Z,38.11
2018-04-19T11:44:44.830Z,37.95
2018-04-19T11:47:18.740Z,39.45
2018-04-19T11:49:52.934Z,39.80
2018-04-19T11:52:26.385Z,40.54
2018-04-19T11:55:00.287Z,40.94
2018-04-19T11:57:35.623Z,40.17
2018-04-19T12:00:09.844Z,40.54
2018-04-19T12:02:43.211Z,40.36
2018-04-19T12:05:16.958Z,40.28
2018-04-19T12:07:51.939Z,40.37
2018-04-19T12:10:25.960Z,38.80
2018-04-19T12:12:59.451Z,39.20
2018-04-19T12:15:36.355Z,36.95
2018-04-19T12:18:09.854Z,37.93
2018-04-19T12:20:44.922Z,38.04
2018-04-19T12:23:21.688Z,36.96
2018-04-19T12:25:57.812Z,35.08
2018-04-19T12:28:51.182Z,34.71
2018-04-19T12:31:29.728Z,35.04
2018-04-19T12:34:03.634Z,36.23
2018-04-19T12:36:43.446Z,35.94
2018-04-19T12:39:22.686Z,35.16
2018-04-19T12:41:56.795Z,34.32
2018-04-19T12:44:30.651Z,34.37
2018-04-19T12:47:04.172Z,34.18
2018-04-19T12:49:40.266Z,34.91
2018-04-19T12:52:15.236Z,34.83
2018-04-19T12:54:53.377Z,34.17
2018-04-19T12:57:30.062Z,34.72
2018-04-19T13:00:07.339Z,35.71
2018-04-19T13:02:43.214Z,34.58
2018-04-19T13:05:19.703Z,34.53
2018-04-19T13:07:55.077Z,33.90
2018-04-19T13:10:29.529Z,34.58
2018-04-19T13:13:08.210Z,35.25
2018-04-19T13:15:44.462Z,35.41
2018-04-19T13:18:29.592Z,36.61
2018-04-19T13:21:21.890Z,35.57
2018-04-19T13:23:57.153Z,36.42
2018-04-19T13:26:31.236Z,34.63
2018-04-19T13:29:06.032Z,32.86
2018-04-19T13:35:12.862Z,35.47
2018-04-19T13:37:48.121Z,35.04
2018-04-19T13:40:23.190Z,35.08
2018-04-19T13:42:56.991Z,33.90
2018-04-19T13:45:31.055Z,32.06
2018-04-19T13:48:05.744Z,35.28
2018-04-19T13:50:40.844Z,36.12
2018-04-19T13:53:14.677Z,35.24
2018-04-19T13:55:48.619Z,34.99
2018-04-19T13:58:22.385Z,35.46
2018-04-19T14:00:56.228Z,37.55
2018-04-19T14:03:30.841Z,36.90
2018-04-19T14:06:05.205Z,37.06
2018-04-19T14:08:40.874Z,37.24
2018-04-19T14:11:14.335Z,36.57
2018-04-19T14:13:49.561Z,36.52
2018-04-19T14:16:23.171Z,36.81
2018-04-19T14:18:56.614Z,37.87
2018-04-19T14:21:30.925Z,36.92
2018-04-19T14:24:04.467Z,36.34
2018-04-19T14:26:39.382Z,36.84
2018-04-19T14:29:14.300Z,36.31
2018-04-19T14:31:47.965Z,36.26
2018-04-19T14:34:22.320Z,36.76
2018-04-19T14:36:58.210Z,37.18
2018-04-19T14:39:32.126Z,37.62
2018-04-19T14:42:05.758Z,37.92
2018-04-19T14:44:39.522Z,36.34
2018-04-19T14:47:13.755Z,36.60
2018-04-19T14:49:48.839Z,37.50
2018-04-19T14:53:26.375Z,37.63
2018-04-19T14:56:00.336Z,37.78
2018-04-19T14:58:34.915Z,38.52
2018-04-19T15:01:10.470Z,37.79
2018-04-19T15:03:44.890Z,37.69
2018-04-19T15:06:21.373Z,37.72
2018-04-19T15:08:58.856Z,36.37
2018-04-19T15:16:51.861Z,37.05
2018-04-19T15:19:28.491Z,37.02
2018-04-19T15:22:02.254Z,36.99
2018-04-19T15:24:36.605Z,37.26
2018-04-19T15:29:51.440Z,38.78
2018-04-19T15:32:29.973Z,39.49
2018-04-19T15:35:04.327Z,39.80
2018-04-19T15:37:54.013Z,39.46
2018-04-19T15:40:47.311Z,39.32
2018-04-19T15:43:25.129Z,39.61
2018-04-19T15:46:01.085Z,40.05
2018-04-19T15:48:35.230Z,40.05
2018-04-19T15:51:08.869Z,40.36
2018-04-19T15:53:44.170Z,39.44
2018-04-19T15:56:22.785Z,39.14
2018-04-19T15:59:05.644Z,39.62
2018-04-19T16:01:43.558Z,39.21
2018-04-19T16:04:20.337Z,39.33
2018-04-19T16:06:57.381Z,39.22
2018-04-19T16:09:33.123Z,38.37
2018-04-19T16:12:08.287Z,38.09
2018-04-19T16:14:48.044Z,38.15
2018-04-19T16:17:23.102Z,38.83
2018-04-19T16:19:57.083Z,39.18
2018-04-19T16:22:31.625Z,39.08
2018-04-19T16:25:07.786Z,38.72
2018-04-19T16:27:41.727Z,38.89
2018-04-19T16:30:15.576Z,38.88
2018-04-19T16:32:49.386Z,39.26
2018-04-19T16:35:23.802Z,39.42
2018-04-19T16:37:57.464Z,39.60
2018-04-19T16:40:32.517Z,39.81
2018-04-19T16:43:06.967Z,40.19
2018-04-19T16:45:40.523Z,40.47
2018-04-19T16:48:14.143Z,40.75
2018-04-19T16:50:48.326Z,41.28
2018-04-19T16:53:22.128Z,41.67
2018-04-19T16:55:56.037Z,41.84
2018-04-19T16:58:31.399Z,42.17
2018-04-19T17:01:09.947Z,42.67
2018-04-19T17:03:44.516Z,43.25
2018-04-19T17:06:18.350Z,44.31
2018-04-19T17:09:01.419Z,44.57
2018-04-19T17:11:52.281Z,45.16
2018-04-19T17:14:34.283Z,45.09
2018-04-19T17:17:12.948Z,45.73
2018-04-19T17:19:46.652Z,46.09
2018-04-19T17:22:21.964Z,46.90
2018-04-19T17:24:55.692Z,46.40
2018-04-19T17:27:30.077Z,46.05
2018-04-19T17:30:09.894Z,46.69
2018-04-19T17:32:46.864Z,46.74
2018-04-19T17:35:21.517Z,47.27
2018-04-19T17:37:58.758Z,48.11
2018-04-19T17:40:34.298Z,48.95
2018-04-19T17:43:07.901Z,49.91
2018-04-19T17:45:42.643Z,50.27
2018-04-19T17:48:17.103Z,50.25
2018-04-19T17:50:50.680Z,51.96
2018-04-19T17:53:25.039Z,53.61
2018-04-19T17:55:59.515Z,53.20
2018-04-19T17:58:34.638Z,51.14
2018-04-19T18:01:08.623Z,49.21
2018-04-19T18:03:42.090Z,49.90
2018-04-19T18:08:48.733Z,53.56
2018-04-19T18:11:23.300Z,54.54
2018-04-19T18:13:57.591Z,55.23
2018-04-19T18:16:32.596Z,56.73
2018-04-19T18:19:06.868Z,56.16
2018-04-19T18:21:41.108Z,56.45
2018-04-19T18:24:14.978Z,57.25
2018-04-19T18:26:49.934Z,58.26
2018-04-19T18:29:23.520Z,58.69
2018-04-19T18:31:57.323Z,59.09
2018-04-19T18:34:33.118Z,58.87
2018-04-19T18:37:06.891Z,59.28
2018-04-19T18:39:40.760Z,59.83
2018-04-19T18:42:14.689Z,59.74
2018-04-19T18:44:49.873Z,60.25
2018-04-19T18:47:23.909Z,60.14
2018-04-19T18:49:57.344Z,60.57
2018-04-19T18:52:33.675Z,60.65
2018-04-19T18:55:07.561Z,61.04
2018-04-19T18:57:42.647Z,60.55
2018-04-19T19:00:16.929Z,60.91
2018-04-19T19:02:50.493Z,60.76
2018-04-19T19:05:24.564Z,60.84
2018-04-19T19:07:58.604Z,61.24
2018-04-19T19:10:32.213Z,61.37
2018-04-19T19:13:06.508Z,60.57
2018-04-19T19:15:48.997Z,61.03
2018-04-19T19:20:38.494Z,61.58
2018-04-19T19:23:13.441Z,62.39
2018-04-19T19:25:48.116Z,62.45
2018-04-19T19:28:22.085Z,62.96
2018-04-19T19:30:55.830Z,63.09
2018-04-19T19:33:31.941Z,63.01
2018-04-19T19:36:06.043Z,63.62
2018-04-19T19:38:39.572Z,63.63
2018-04-19T19:41:12.993Z,63.77
2018-04-19T19:43:46.778Z,63.54
2018-04-19T19:46:20.147Z,63.98
2018-04-19T19:48:53.978Z,64.00
2018-04-19T19:51:27.928Z,64.52
2018-04-19T19:54:01.475Z,64.59
2018-04-19T19:56:35.076Z,64.74
2018-04-19T19:59:09.265Z,65.05
2018-04-19T20:01:43.010Z,65.14
2018-04-19T20:04:16.616Z,65.32
2018-04-19T20:06:50.604Z,65.57
2018-04-19T20:09:24.798Z,65.61
2018-04-19T20:11:58.400Z,65.39
2018-04-19T20:14:32.472Z,65.97
2018-04-19T20:17:06.334Z,66.35
2018-04-19T20:19:39.890Z,67.67
2018-04-19T20:22:14.195Z,67.05
2018-04-19T20:24:47.680Z,67.18
2018-04-19T20:27:21.785Z,67.44
2018-04-19T20:29:56.105Z,67.35
2018-04-19T20:32:30.184Z,67.45
2018-04-19T20:35:04.072Z,67.59
2018-04-19T20:37:37.702Z,67.67
2018-04-19T20:40:11.272Z,68.05
2018-04-19T20:42:45.967Z,68.57
2018-04-19T20:45:20.956Z,68.90
2018-04-19T20:47:54.895Z,68.98
2018-04-19T20:50:28.815Z,68.90
2018-04-19T20:53:03.818Z,69.01
2018-04-19T20:55:37.898Z,69.33
2018-04-19T20:58:11.512Z,69.38
2018-04-19T21:00:46.395Z,69.80
2018-04-19T21:03:20.045Z,69.89
2018-04-19T21:05:53.597Z,70.01
2018-04-19T21:08:27.133Z,70.09
2018-04-19T21:11:00.855Z,70.42
2018-04-19T21:13:34.218Z,70.67
2018-04-19T21:16:08.379Z,70.90
2018-04-19T21:18:45.745Z,71.02
2018-04-19T21:21:25.198Z,71.36
2018-04-19T21:23:59.235Z,71.64
2018-04-19T21:26:32.631Z,71.68
2018-04-19T21:29:06.299Z,71.97
2018-04-19T21:31:40.662Z,72.01
2018-04-19T21:34:14.096Z,72.10
2018-04-19T21:36:47.785Z,72.09
2018-04-19T21:39:21.984Z,72.22
2018-04-19T21:41:55.513Z,72.69
2018-04-19T21:44:29.185Z,72.93
2018-04-19T21:47:03.949Z,72.95
2018-04-19T21:49:37.377Z,73.25
2018-04-19T21:52:10.770Z,73.68
2018-04-19T21:54:45.227Z,73.87
2018-04-19T21:57:19.116Z,73.89
2018-04-19T21:59:52.839Z,73.94
2018-04-19T22:02:26.955Z,73.98
2018-04-19T22:05:00.286Z,74.23
2018-04-19T22:07:33.685Z,74.37
2018-04-19T22:10:07.501Z,74.63
2018-04-19T22:12:42.305Z,74.57
2018-04-19T22:15:16.187Z,74.61
2018-04-19T22:17:50.691Z,74.97
2018-04-19T22:20:24.207Z,75.17
2018-04-19T22:22:59.599Z,75.30
2018-04-19T22:25:35.038Z,75.39
2018-04-19T22:28:09.092Z,75.66
2018-04-19T22:30:42.966Z,75.90
2018-04-19T22:33:17.654Z,75.92
2018-04-19T22:35:51.238Z,76.10
2018-04-19T22:38:25.297Z,76.29
2018-04-19T22:40:58.847Z,76.40
2018-04-19T22:43:32.521Z,76.46
2018-04-19T22:46:05.990Z,76.41
2018-04-19T22:48:39.723Z,76.64
2018-04-19T22:51:13.543Z,76.86
2018-04-19T22:53:46.978Z,77.06
2018-04-19T22:56:20.424Z,76.93
2018-04-19T22:58:54.048Z,77.10
2018-04-19T23:01:27.835Z,77.19
2018-04-19T23:04:01.337Z,77.33
2018-04-19T23:06:35.194Z,77.59
2018-04-19T23:09:10.629Z,77.62
2018-04-19T23:11:44.342Z,77.79
2018-04-19T23:14:17.858Z,77.86
2018-04-19T23:16:51.932Z,77.86
2018-04-19T23:19:25.385Z,77.94
2018-04-19T23:21:58.977Z,77.91
2018-04-19T23:24:32.559Z,78.11
2018-04-19T23:27:06.131Z,78.26
2018-04-19T23:29:39.776Z,78.26
2018-04-19T23:32:17.177Z,78.34
2018-04-19T23:34:50.639Z,78.46
2018-04-19T23:37:24.161Z,78.63
2018-04-19T23:39:57.993Z,78.88
2018-04-19T23:42:31.413Z,79.15
2018-04-19T23:45:04.870Z,79.36
2018-04-19T23:47:38.793Z,79.44
2018-04-19T23:50:12.301Z,79.65
2018-04-19T23:52:46.066Z,79.82
2018-04-19T23:55:19.899Z,79.60
2018-04-19T23:57:54.239Z,79.76
